DLH4LM EPBY-EVRA
Flight info
| Callsign | DLH4LM |
|---|---|
| Flight time | 1h 1m |
| Altitude | 37000 |
| Route | GOBNI Z95 GRUDA N858 BOKSU DCT GUNTA |
| Aircraft | CRJ9/M-SDFGIRWY/S |
Departure
| Time | 2026-05-08 18:44 |
|---|---|
| Airport | Ignacy Jan Paderewski Bydgoszcz Airport (EPBY) |
Arrival
| Time | 2026-05-08 19:45 |
|---|---|
| Airport | Riga International Airport (EVRA) |
| Time | Latitude | Longitude | Altitude | Speed | Heading |
|---|---|---|---|---|---|
| 2026-05-08 18:09 | 53.09463 | 17.99695 | 222 ft | 0 kts | 172° |
| 2026-05-08 18:35 | 53.09440 | 17.99701 | 222 ft | 4 kts | 351° |
| 2026-05-08 18:36 | 53.09467 | 17.99698 | 222 ft | 4 kts | 358° |
| 2026-05-08 18:36 | 53.09494 | 17.99694 | 195 ft | 3 kts | 349° |
| 2026-05-08 18:36 | 53.09492 | 17.99695 | 195 ft | 1 kts | 346° |
| 2026-05-08 18:40 | 53.09494 | 17.99694 | 222 ft | 1 kts | 346° |
| 2026-05-08 18:40 | 53.09515 | 17.99686 | 222 ft | 5 kts | 347° |
| 2026-05-08 18:40 | 53.09560 | 17.99676 | 222 ft | 8 kts | 353° |
| 2026-05-08 18:40 | 53.09624 | 17.99661 | 222 ft | 10 kts | 351° |
| 2026-05-08 18:41 | 53.09671 | 17.99649 | 222 ft | 2 kts | 352° |
| 2026-05-08 18:41 | 53.09675 | 17.99648 | 222 ft | 1 kts | 352° |
| 2026-05-08 18:41 | 53.09685 | 17.99646 | 222 ft | 4 kts | 352° |
| 2026-05-08 18:41 | 53.09734 | 17.99634 | 222 ft | 8 kts | 352° |
| 2026-05-08 18:42 | 53.09793 | 17.99611 | 224 ft | 8 kts | 329° |
| 2026-05-08 18:42 | 53.09827 | 17.99535 | 225 ft | 9 kts | 275° |
| 2026-05-08 18:42 | 53.09826 | 17.99502 | 225 ft | 1 kts | 263° |
| 2026-05-08 18:42 | 53.09826 | 17.99500 | 225 ft | 0 kts | 263° |
| 2026-05-08 18:43 | 53.09786 | 17.99023 | 221 ft | 85 kts | 262° |
| 2026-05-08 18:43 | 53.09670 | 17.97635 | 222 ft | 153 kts | 263° |
| 2026-05-08 18:43 | 53.09512 | 17.95689 | 595 ft | 181 kts | 264° |
| 2026-05-08 18:44 | 53.09320 | 17.93581 | 1460 ft | 189 kts | 264° |
| 2026-05-08 18:44 | 53.09116 | 17.91321 | 2150 ft | 207 kts | 263° |
| 2026-05-08 18:44 | 53.08880 | 17.88750 | 2409 ft | 254 kts | 263° |
| 2026-05-08 18:44 | 53.08383 | 17.85552 | 2208 ft | 316 kts | 242° |
| 2026-05-08 18:45 | 53.06929 | 17.82975 | 2450 ft | 295 kts | 207° |
| 2026-05-08 18:45 | 53.05121 | 17.82186 | 3241 ft | 254 kts | 176° |
| 2026-05-08 18:45 | 53.03449 | 17.83075 | 3388 ft | 259 kts | 139° |
| 2026-05-08 18:45 | 53.02421 | 17.85374 | 4276 ft | 251 kts | 111° |
| 2026-05-08 18:46 | 53.01804 | 17.88150 | 5045 ft | 260 kts | 106° |
| 2026-05-08 18:46 | 53.01310 | 17.91073 | 5964 ft | 265 kts | 101° |
| 2026-05-08 18:46 | 53.01185 | 17.94116 | 6846 ft | 267 kts | 80° |
| 2026-05-08 18:46 | 53.01495 | 17.97184 | 7694 ft | 272 kts | 78° |
| 2026-05-08 18:47 | 53.01840 | 18.00291 | 8540 ft | 277 kts | 78° |
| 2026-05-08 18:47 | 53.02195 | 18.03461 | 9412 ft | 281 kts | 79° |
| 2026-05-08 18:47 | 53.02515 | 18.06697 | 10208 ft | 289 kts | 80° |
| 2026-05-08 18:47 | 53.02810 | 18.10024 | 10944 ft | 294 kts | 81° |
| 2026-05-08 18:48 | 53.03090 | 18.13411 | 11722 ft | 299 kts | 82° |
| 2026-05-08 18:48 | 53.03381 | 18.16854 | 12500 ft | 303 kts | 81° |
| 2026-05-08 18:48 | 53.03690 | 18.20339 | 13290 ft | 308 kts | 81° |
| 2026-05-08 18:48 | 53.04007 | 18.23838 | 14043 ft | 313 kts | 81° |
| 2026-05-08 18:49 | 53.04333 | 18.27435 | 14723 ft | 317 kts | 81° |
| 2026-05-08 18:49 | 53.04661 | 18.31091 | 15413 ft | 322 kts | 81° |
| 2026-05-08 18:49 | 53.04988 | 18.34794 | 16085 ft | 326 kts | 81° |
| 2026-05-08 18:49 | 53.05313 | 18.38549 | 16763 ft | 330 kts | 81° |
| 2026-05-08 18:50 | 53.05638 | 18.42358 | 17427 ft | 334 kts | 81° |
| 2026-05-08 18:50 | 53.05960 | 18.46203 | 18125 ft | 337 kts | 81° |
| 2026-05-08 18:50 | 53.06281 | 18.50091 | 18743 ft | 341 kts | 81° |
| 2026-05-08 18:50 | 53.06600 | 18.54018 | 19302 ft | 345 kts | 81° |
| 2026-05-08 18:51 | 53.06922 | 18.57993 | 19852 ft | 348 kts | 81° |
| 2026-05-08 18:51 | 53.07286 | 18.61992 | 20377 ft | 352 kts | 74° |
| 2026-05-08 18:51 | 53.08225 | 18.65746 | 20818 ft | 354 kts | 60° |
| 2026-05-08 18:51 | 53.09412 | 18.69364 | 21345 ft | 357 kts | 57° |
| 2026-05-08 18:52 | 53.10678 | 18.72934 | 21859 ft | 360 kts | 56° |
| 2026-05-08 18:52 | 53.11996 | 18.76497 | 22359 ft | 363 kts | 55° |
| 2026-05-08 18:52 | 53.13304 | 18.80129 | 22856 ft | 367 kts | 58° |
| 2026-05-08 18:52 | 53.14519 | 18.83900 | 23339 ft | 371 kts | 60° |
| 2026-05-08 18:53 | 53.15670 | 18.87775 | 23800 ft | 375 kts | 62° |
| 2026-05-08 18:53 | 53.16818 | 18.91700 | 24199 ft | 378 kts | 61° |
| 2026-05-08 18:53 | 53.18010 | 18.95690 | 24256 ft | 392 kts | 61° |
| 2026-05-08 18:53 | 53.19251 | 18.99833 | 24277 ft | 407 kts | 61° |
| 2026-05-08 18:54 | 53.20517 | 19.04069 | 24308 ft | 420 kts | 61° |
| 2026-05-08 18:54 | 53.21840 | 19.08507 | 24393 ft | 432 kts | 61° |
| 2026-05-08 18:54 | 53.23175 | 19.12999 | 24763 ft | 433 kts | 60° |
| 2026-05-08 18:54 | 53.24521 | 19.17517 | 25117 ft | 436 kts | 61° |
| 2026-05-08 18:55 | 53.27227 | 19.26638 | 25773 ft | 440 kts | 61° |
| 2026-05-08 18:55 | 53.28588 | 19.31236 | 26102 ft | 443 kts | 61° |
| 2026-05-08 18:55 | 53.29958 | 19.35870 | 26317 ft | 447 kts | 61° |
| 2026-05-08 18:56 | 53.31336 | 19.40551 | 26622 ft | 449 kts | 61° |
| 2026-05-08 18:56 | 53.32717 | 19.45251 | 26926 ft | 452 kts | 61° |
| 2026-05-08 18:56 | 53.34105 | 19.49986 | 27239 ft | 454 kts | 61° |
| 2026-05-08 18:56 | 53.35496 | 19.54737 | 27521 ft | 456 kts | 61° |
| 2026-05-08 18:57 | 53.36891 | 19.59511 | 27804 ft | 458 kts | 61° |
| 2026-05-08 18:57 | 53.37822 | 19.62696 | 27988 ft | 459 kts | 61° |
| 2026-05-08 18:57 | 53.39687 | 19.69108 | 28631 ft | 455 kts | 63° |
| 2026-05-08 18:57 | 53.41071 | 19.73893 | 28886 ft | 457 kts | 62° |
| 2026-05-08 18:58 | 53.42463 | 19.78697 | 29131 ft | 459 kts | 62° |
| 2026-05-08 18:58 | 53.43862 | 19.83529 | 29362 ft | 461 kts | 62° |
| 2026-05-08 18:58 | 53.45260 | 19.88384 | 29607 ft | 463 kts | 63° |
| 2026-05-08 18:58 | 53.46668 | 19.93264 | 29834 ft | 465 kts | 63° |
| 2026-05-08 18:59 | 53.48082 | 19.98181 | 30061 ft | 467 kts | 63° |
| 2026-05-08 18:59 | 53.49474 | 20.03039 | 30243 ft | 469 kts | 63° |
| 2026-05-08 18:59 | 53.50892 | 20.07994 | 30404 ft | 471 kts | 63° |
| 2026-05-08 18:59 | 53.52316 | 20.12973 | 30591 ft | 473 kts | 63° |
| 2026-05-08 19:00 | 53.53275 | 20.16338 | 30895 ft | 468 kts | 63° |
| 2026-05-08 19:00 | 53.55107 | 20.22771 | 31756 ft | 454 kts | 64° |
| 2026-05-08 19:00 | 53.56463 | 20.27562 | 32019 ft | 455 kts | 65° |
| 2026-05-08 19:00 | 53.57819 | 20.32364 | 32269 ft | 454 kts | 65° |
| 2026-05-08 19:01 | 53.59163 | 20.37118 | 32839 ft | 445 kts | 65° |
| 2026-05-08 19:01 | 53.60484 | 20.41804 | 33237 ft | 442 kts | 65° |
| 2026-05-08 19:01 | 53.61801 | 20.46479 | 33501 ft | 441 kts | 65° |
| 2026-05-08 19:01 | 53.63115 | 20.51159 | 33722 ft | 442 kts | 65° |
| 2026-05-08 19:02 | 53.64425 | 20.55832 | 33981 ft | 441 kts | 65° |
| 2026-05-08 19:02 | 53.65737 | 20.60519 | 34216 ft | 441 kts | 65° |
| 2026-05-08 19:02 | 53.67045 | 20.65200 | 34384 ft | 442 kts | 65° |
| 2026-05-08 19:02 | 53.68351 | 20.69887 | 34563 ft | 442 kts | 65° |
| 2026-05-08 19:03 | 53.69658 | 20.74582 | 34736 ft | 442 kts | 65° |
| 2026-05-08 19:03 | 53.70961 | 20.79278 | 34934 ft | 442 kts | 65° |
| 2026-05-08 19:03 | 53.72261 | 20.83969 | 35201 ft | 440 kts | 66° |
| 2026-05-08 19:04 | 53.74414 | 20.91759 | 35461 ft | 441 kts | 66° |
| 2026-05-08 19:04 | 53.75708 | 20.96453 | 35635 ft | 441 kts | 66° |
| 2026-05-08 19:04 | 53.77000 | 21.01153 | 35808 ft | 442 kts | 66° |
| 2026-05-08 19:04 | 53.78292 | 21.05865 | 35980 ft | 442 kts | 66° |
| 2026-05-08 19:05 | 53.79587 | 21.10586 | 36152 ft | 442 kts | 66° |
| 2026-05-08 19:05 | 53.80875 | 21.15308 | 36322 ft | 442 kts | 66° |
| 2026-05-08 19:05 | 53.82166 | 21.20034 | 36493 ft | 443 kts | 66° |
| 2026-05-08 19:05 | 53.83454 | 21.24764 | 36655 ft | 443 kts | 66° |
| 2026-05-08 19:06 | 53.84741 | 21.29501 | 36827 ft | 443 kts | 66° |
| 2026-05-08 19:06 | 53.86023 | 21.34243 | 37008 ft | 443 kts | 66° |
| 2026-05-08 19:06 | 53.87295 | 21.39003 | 37109 ft | 445 kts | 66° |
| 2026-05-08 19:07 | 53.89881 | 21.48533 | 37161 ft | 451 kts | 66° |
| 2026-05-08 19:07 | 53.92496 | 21.58261 | 37179 ft | 455 kts | 66° |
| 2026-05-08 19:08 | 53.95126 | 21.68103 | 37184 ft | 460 kts | 66° |
| 2026-05-08 19:08 | 53.97775 | 21.78044 | 37180 ft | 464 kts | 67° |
| 2026-05-08 19:09 | 54.00438 | 21.88093 | 37189 ft | 468 kts | 67° |
| 2026-05-08 19:09 | 54.03115 | 21.98235 | 37188 ft | 472 kts | 67° |
| 2026-05-08 19:10 | 54.05803 | 22.08466 | 37182 ft | 475 kts | 67° |
| 2026-05-08 19:10 | 54.08501 | 22.18781 | 37166 ft | 478 kts | 67° |
| 2026-05-08 19:11 | 54.11189 | 22.29111 | 37178 ft | 481 kts | 67° |
| 2026-05-08 19:11 | 54.13900 | 22.39570 | 37174 ft | 483 kts | 67° |
| 2026-05-08 19:12 | 54.16613 | 22.50092 | 37171 ft | 485 kts | 67° |
| 2026-05-08 19:12 | 54.19328 | 22.60671 | 37176 ft | 487 kts | 68° |
| 2026-05-08 19:13 | 54.22037 | 22.71273 | 37170 ft | 486 kts | 68° |
| 2026-05-08 19:13 | 54.24719 | 22.81826 | 37168 ft | 482 kts | 68° |
| 2026-05-08 19:14 | 54.28056 | 22.91664 | 37151 ft | 481 kts | 48° |
| 2026-05-08 19:14 | 54.30531 | 22.95502 | 37173 ft | 480 kts | 37° |
| 2026-05-08 19:14 | 54.33286 | 22.98724 | 37177 ft | 479 kts | 33° |
| 2026-05-08 19:15 | 54.38990 | 23.04622 | 37175 ft | 478 kts | 31° |
| 2026-05-08 19:15 | 54.44769 | 23.10229 | 37169 ft | 476 kts | 29° |
| 2026-05-08 19:15 | 54.47791 | 23.12561 | 37165 ft | 476 kts | 18° |
| 2026-05-08 19:16 | 54.51023 | 23.13727 | 37174 ft | 475 kts | 5° |
| 2026-05-08 19:16 | 54.57599 | 23.14502 | 37184 ft | 473 kts | 6° |
| 2026-05-08 19:17 | 54.64025 | 23.16483 | 37175 ft | 472 kts | 12° |
| 2026-05-08 19:17 | 54.70439 | 23.18817 | 37171 ft | 470 kts | 11° |
| 2026-05-08 19:18 | 54.76890 | 23.20920 | 37166 ft | 473 kts | 10° |
| 2026-05-08 19:18 | 54.83373 | 23.23049 | 37168 ft | 475 kts | 11° |
| 2026-05-08 19:19 | 54.89862 | 23.25181 | 37167 ft | 472 kts | 11° |
| 2026-05-08 19:19 | 54.93083 | 23.26243 | 36945 ft | 468 kts | 11° |
| 2026-05-08 19:19 | 54.96249 | 23.27288 | 36486 ft | 458 kts | 11° |
| 2026-05-08 19:19 | 54.99349 | 23.28313 | 35964 ft | 451 kts | 12° |
| 2026-05-08 19:20 | 55.02435 | 23.29335 | 35161 ft | 452 kts | 12° |
| 2026-05-08 19:20 | 55.04478 | 23.30011 | 34633 ft | 452 kts | 12° |
| 2026-05-08 19:20 | 55.08622 | 23.31392 | 33406 ft | 455 kts | 13° |
| 2026-05-08 19:20 | 55.11734 | 23.32434 | 32454 ft | 456 kts | 14° |
| 2026-05-08 19:21 | 55.14849 | 23.33483 | 31469 ft | 457 kts | 14° |
| 2026-05-08 19:21 | 55.17973 | 23.34534 | 30266 ft | 461 kts | 14° |
| 2026-05-08 19:21 | 55.21142 | 23.35603 | 29111 ft | 462 kts | 14° |
| 2026-05-08 19:21 | 55.24300 | 23.36665 | 28200 ft | 458 kts | 14° |
| 2026-05-08 19:22 | 55.27409 | 23.37705 | 27411 ft | 451 kts | 14° |
| 2026-05-08 19:22 | 55.30431 | 23.38718 | 26640 ft | 445 kts | 14° |
| 2026-05-08 19:22 | 55.33446 | 23.39735 | 25900 ft | 438 kts | 14° |
| 2026-05-08 19:22 | 55.36420 | 23.40740 | 25178 ft | 432 kts | 14° |
| 2026-05-08 19:23 | 55.39350 | 23.41728 | 24464 ft | 426 kts | 14° |
| 2026-05-08 19:23 | 55.42248 | 23.42709 | 23756 ft | 422 kts | 13° |
| 2026-05-08 19:23 | 55.45111 | 23.43676 | 22981 ft | 416 kts | 13° |
| 2026-05-08 19:23 | 55.47935 | 23.44633 | 22235 ft | 410 kts | 13° |
| 2026-05-08 19:24 | 55.50718 | 23.45577 | 21512 ft | 405 kts | 13° |
| 2026-05-08 19:24 | 55.53468 | 23.46513 | 20821 ft | 399 kts | 13° |
| 2026-05-08 19:24 | 55.56176 | 23.47430 | 20167 ft | 394 kts | 12° |
| 2026-05-08 19:24 | 55.58847 | 23.48339 | 19534 ft | 388 kts | 12° |
| 2026-05-08 19:25 | 55.61485 | 23.49242 | 18913 ft | 383 kts | 12° |
| 2026-05-08 19:25 | 55.64086 | 23.50126 | 18285 ft | 378 kts | 12° |
| 2026-05-08 19:25 | 55.66661 | 23.51005 | 17482 ft | 377 kts | 12° |
| 2026-05-08 19:25 | 55.69225 | 23.51873 | 16817 ft | 373 kts | 13° |
| 2026-05-08 19:26 | 55.71755 | 23.52743 | 16207 ft | 368 kts | 13° |
| 2026-05-08 19:26 | 55.74251 | 23.53604 | 15607 ft | 363 kts | 14° |
| 2026-05-08 19:26 | 55.76712 | 23.54456 | 15014 ft | 358 kts | 14° |
| 2026-05-08 19:26 | 55.79141 | 23.55295 | 14435 ft | 353 kts | 14° |
| 2026-05-08 19:27 | 55.81539 | 23.56123 | 13842 ft | 349 kts | 14° |
| 2026-05-08 19:27 | 55.83906 | 23.56941 | 13221 ft | 344 kts | 15° |
| 2026-05-08 19:27 | 55.86238 | 23.57758 | 12593 ft | 340 kts | 15° |
| 2026-05-08 19:27 | 55.88544 | 23.58562 | 11982 ft | 335 kts | 14° |
| 2026-05-08 19:28 | 55.90816 | 23.59346 | 11385 ft | 331 kts | 14° |
| 2026-05-08 19:28 | 55.93050 | 23.60120 | 10978 ft | 320 kts | 14° |
| 2026-05-08 19:28 | 55.95173 | 23.60852 | 10910 ft | 302 kts | 14° |
| 2026-05-08 19:28 | 55.97169 | 23.61542 | 10777 ft | 293 kts | 15° |
| 2026-05-08 19:29 | 55.99171 | 23.62248 | 10647 ft | 293 kts | 15° |
| 2026-05-08 19:29 | 56.01171 | 23.62950 | 10512 ft | 292 kts | 15° |
| 2026-05-08 19:29 | 56.03156 | 23.63648 | 10385 ft | 290 kts | 15° |
| 2026-05-08 19:29 | 56.05133 | 23.64344 | 10284 ft | 288 kts | 15° |
| 2026-05-08 19:30 | 56.07087 | 23.65023 | 10232 ft | 284 kts | 15° |
| 2026-05-08 19:30 | 56.09012 | 23.65696 | 10209 ft | 279 kts | 15° |
| 2026-05-08 19:30 | 56.10905 | 23.66358 | 10203 ft | 275 kts | 15° |
| 2026-05-08 19:30 | 56.12772 | 23.67014 | 10197 ft | 271 kts | 15° |
| 2026-05-08 19:31 | 56.14615 | 23.67646 | 10192 ft | 268 kts | 14° |
| 2026-05-08 19:31 | 56.16434 | 23.68260 | 10195 ft | 265 kts | 14° |
| 2026-05-08 19:31 | 56.18236 | 23.68862 | 10196 ft | 262 kts | 15° |
| 2026-05-08 19:31 | 56.20015 | 23.69458 | 10192 ft | 259 kts | 15° |
| 2026-05-08 19:32 | 56.21778 | 23.70070 | 10197 ft | 257 kts | 15° |
| 2026-05-08 19:32 | 56.23537 | 23.70693 | 10189 ft | 262 kts | 15° |
| 2026-05-08 19:32 | 56.25345 | 23.71334 | 10195 ft | 262 kts | 15° |
| 2026-05-08 19:32 | 56.27099 | 23.71947 | 10019 ft | 259 kts | 15° |
| 2026-05-08 19:33 | 56.28864 | 23.72574 | 9811 ft | 259 kts | 15° |
| 2026-05-08 19:33 | 56.30627 | 23.73200 | 9588 ft | 258 kts | 15° |
| 2026-05-08 19:33 | 56.32388 | 23.73822 | 9379 ft | 257 kts | 15° |
| 2026-05-08 19:33 | 56.34142 | 23.74444 | 9173 ft | 257 kts | 15° |
| 2026-05-08 19:34 | 56.35893 | 23.75060 | 8979 ft | 256 kts | 15° |
| 2026-05-08 19:34 | 56.37636 | 23.75715 | 8773 ft | 255 kts | 18° |
| 2026-05-08 19:34 | 56.39342 | 23.76552 | 8582 ft | 254 kts | 21° |
| 2026-05-08 19:34 | 56.41028 | 23.77478 | 8394 ft | 253 kts | 21° |
| 2026-05-08 19:35 | 56.42707 | 23.78392 | 8202 ft | 251 kts | 21° |
| 2026-05-08 19:35 | 56.44382 | 23.79296 | 7870 ft | 251 kts | 21° |
| 2026-05-08 19:35 | 56.46056 | 23.80193 | 7543 ft | 251 kts | 21° |
| 2026-05-08 19:35 | 56.47703 | 23.81055 | 7445 ft | 238 kts | 21° |
| 2026-05-08 19:36 | 56.49217 | 23.81820 | 7307 ft | 221 kts | 21° |
| 2026-05-08 19:36 | 56.50701 | 23.82571 | 6827 ft | 221 kts | 22° |
| 2026-05-08 19:36 | 56.52180 | 23.83336 | 6348 ft | 221 kts | 22° |
| 2026-05-08 19:36 | 56.53653 | 23.84109 | 5853 ft | 219 kts | 22° |
| 2026-05-08 19:37 | 56.55114 | 23.84871 | 5383 ft | 219 kts | 22° |
| 2026-05-08 19:37 | 56.56569 | 23.85627 | 5030 ft | 217 kts | 22° |
| 2026-05-08 19:37 | 56.58006 | 23.86374 | 4717 ft | 213 kts | 21° |
| 2026-05-08 19:37 | 56.59416 | 23.87110 | 4402 ft | 209 kts | 21° |
| 2026-05-08 19:38 | 56.60802 | 23.87839 | 4064 ft | 206 kts | 21° |
| 2026-05-08 19:38 | 56.62149 | 23.88543 | 3828 ft | 200 kts | 22° |
| 2026-05-08 19:38 | 56.63491 | 23.89250 | 3615 ft | 201 kts | 22° |
| 2026-05-08 19:38 | 56.64838 | 23.89954 | 3399 ft | 202 kts | 21° |
| 2026-05-08 19:39 | 56.66191 | 23.90667 | 3173 ft | 203 kts | 21° |
| 2026-05-08 19:39 | 56.67539 | 23.91373 | 2938 ft | 202 kts | 21° |
| 2026-05-08 19:39 | 56.68886 | 23.92074 | 2724 ft | 200 kts | 21° |
| 2026-05-08 19:39 | 56.70204 | 23.92762 | 2591 ft | 194 kts | 21° |
| 2026-05-08 19:40 | 56.71484 | 23.93389 | 2533 ft | 189 kts | 18° |
| 2026-05-08 19:40 | 56.72764 | 23.93777 | 2514 ft | 185 kts | 15° |
| 2026-05-08 19:40 | 56.74017 | 23.94050 | 2511 ft | 185 kts | 14° |
| 2026-05-08 19:40 | 56.75323 | 23.94298 | 2520 ft | 190 kts | 13° |
| 2026-05-08 19:41 | 56.76623 | 23.94519 | 2521 ft | 184 kts | 12° |
| 2026-05-08 19:41 | 56.77841 | 23.94707 | 2522 ft | 168 kts | 13° |
| 2026-05-08 19:41 | 56.78961 | 23.94883 | 2380 ft | 158 kts | 14° |
| 2026-05-08 19:41 | 56.80025 | 23.95070 | 2146 ft | 151 kts | 14° |
| 2026-05-08 19:42 | 56.81081 | 23.95263 | 1966 ft | 154 kts | 14° |
| 2026-05-08 19:42 | 56.82157 | 23.95460 | 1763 ft | 157 kts | 14° |
| 2026-05-08 19:42 | 56.83259 | 23.95652 | 1542 ft | 161 kts | 13° |
| 2026-05-08 19:42 | 56.84347 | 23.95817 | 1312 ft | 152 kts | 12° |
| 2026-05-08 19:43 | 56.85340 | 23.95959 | 1097 ft | 137 kts | 13° |
| 2026-05-08 19:43 | 56.85772 | 23.96021 | 1011 ft | 129 kts | 13° |
| 2026-05-08 19:43 | 56.86190 | 23.96090 | 941 ft | 122 kts | 13° |
| 2026-05-08 19:43 | 56.87023 | 23.96249 | 807 ft | 123 kts | 12° |
| 2026-05-08 19:44 | 56.87895 | 23.96422 | 641 ft | 128 kts | 10° |
| 2026-05-08 19:44 | 56.88779 | 23.96563 | 506 ft | 127 kts | 7° |
| 2026-05-08 19:44 | 56.89614 | 23.96669 | 263 ft | 117 kts | 7° |
| 2026-05-08 19:44 | 56.90423 | 23.96794 | 127 ft | 114 kts | 7° |
| 2026-05-08 19:45 | 56.91173 | 23.96923 | 43 ft | 95 kts | 5° |
| 2026-05-08 19:45 | 56.91701 | 23.97007 | 41 ft | 58 kts | 5° |
| 2026-05-08 19:45 | 56.92054 | 23.97064 | 42 ft | 48 kts | 5° |
| 2026-05-08 19:45 | 56.92330 | 23.97132 | 43 ft | 36 kts | 19° |
| 2026-05-08 19:46 | 56.92481 | 23.97274 | 42 ft | 10 kts | 34° |
| 2026-05-08 19:46 | 56.92528 | 23.97333 | 42 ft | 9 kts | 34° |
| 2026-05-08 19:46 | 56.92590 | 23.97412 | 42 ft | 2 kts | 34° |
| 2026-05-08 19:47 | 56.92599 | 23.97425 | 42 ft | 0 kts | 41° |
| 2026-05-08 19:47 | 56.92600 | 23.97425 | 42 ft | 0 kts | 41° |
| 2026-05-08 19:48 | 56.92612 | 23.97474 | 42 ft | 7 kts | 83° |
| 2026-05-08 19:48 | 56.92611 | 23.97554 | 42 ft | 1 kts | 94° |
| 2026-05-08 19:48 | 56.92608 | 23.97610 | 42 ft | 6 kts | 96° |
| 2026-05-08 19:48 | 56.92607 | 23.97626 | 42 ft | 0 kts | 96° |
| 2026-05-08 19:49 | 56.92606 | 23.97637 | 42 ft | 4 kts | 107° |
| 2026-05-08 19:49 | 56.92598 | 23.97657 | 42 ft | 3 kts | 144° |
| 2026-05-08 19:50 | 56.92579 | 23.97661 | 42 ft | 4 kts | 185° |
| 2026-05-08 19:50 | 56.92557 | 23.97658 | 42 ft | 1 kts | 185° |
| 2026-05-08 19:50 | 56.92554 | 23.97657 | 42 ft | 0 kts | 185° |